sensor_id;sensor_type;location;lat;lon;timestamp;P1;durP1;ratioP1;P2;durP2;ratioP2
34926;SDS011;21132;48.308;14.274;2022-08-04T00:02:09;3.88;;;1.60;;
34926;SDS011;21132;48.308;14.274;2022-08-04T00:07:18;3.10;;;1.65;;
34926;SDS011;21132;48.308;14.274;2022-08-04T00:10:01;5.60;;;1.60;;
34926;SDS011;21132;48.308;14.274;2022-08-04T00:12:29;4.35;;;1.70;;
34926;SDS011;21132;48.308;14.274;2022-08-04T00:15:00;1.90;;;1.60;;
34926;SDS011;21132;48.308;14.274;2022-08-04T00:17:30;4.15;;;1.70;;
34926;SDS011;21132;48.308;14.274;2022-08-04T00:20:00;3.53;;;1.55;;
34926;SDS011;21132;48.308;14.274;2022-08-04T00:22:29;4.13;;;1.98;;
34926;SDS011;21132;48.308;14.274;2022-08-04T00:24:56;3.95;;;1.60;;
34926;SDS011;21132;48.308;14.274;2022-08-04T00:27:25;2.88;;;1.88;;
34926;SDS011;21132;48.308;14.274;2022-08-04T00:29:56;2.05;;;1.50;;
34926;SDS011;21132;48.308;14.274;2022-08-04T00:32:24;2.13;;;1.90;;
34926;SDS011;21132;48.308;14.274;2022-08-04T00:34:51;1.40;;;1.25;;
34926;SDS011;21132;48.308;14.274;2022-08-04T00:37:21;3.55;;;1.60;;
34926;SDS011;21132;48.308;14.274;2022-08-04T00:39:48;3.72;;;2.30;;
34926;SDS011;21132;48.308;14.274;2022-08-04T00:53:06;2.10;;;1.90;;
34926;SDS011;21132;48.308;14.274;2022-08-04T00:58:22;9.55;;;2.05;;
34926;SDS011;21132;48.308;14.274;2022-08-04T01:01:04;2.17;;;1.90;;
34926;SDS011;21132;48.308;14.274;2022-08-04T01:03:36;2.22;;;1.40;;
34926;SDS011;21132;48.308;14.274;2022-08-04T01:12:25;2.13;;;1.92;;
34926;SDS011;21132;48.308;14.274;2022-08-04T01:15:08;2.90;;;1.95;;
34926;SDS011;21132;48.308;14.274;2022-08-04T01:20:24;3.45;;;1.90;;
34926;SDS011;21132;48.308;14.274;2022-08-04T01:30:48;2.00;;;1.77;;
34926;SDS011;21132;48.308;14.274;2022-08-04T01:33:18;2.30;;;1.88;;
34926;SDS011;21132;48.308;14.274;2022-08-04T01:35:47;4.78;;;2.15;;
34926;SDS011;21132;48.308;14.274;2022-08-04T01:38:18;12.38;;;2.30;;
34926;SDS011;21132;48.308;14.274;2022-08-04T01:41:03;2.78;;;2.00;;
34926;SDS011;21132;48.308;14.274;2022-08-04T01:43:31;4.47;;;2.13;;
34926;SDS011;21132;48.308;14.274;2022-08-04T01:46:02;3.28;;;1.95;;
34926;SDS011;21132;48.308;14.274;2022-08-04T01:48:29;2.88;;;2.00;;
34926;SDS011;21132;48.308;14.274;2022-08-04T01:50:57;3.65;;;1.95;;
34926;SDS011;21132;48.308;14.274;2022-08-04T01:53:34;2.63;;;1.60;;
34926;SDS011;21132;48.308;14.274;2022-08-04T01:56:02;2.95;;;1.80;;
34926;SDS011;21132;48.308;14.274;2022-08-04T01:58:31;1.90;;;1.70;;
34926;SDS011;21132;48.308;14.274;2022-08-04T02:01:02;4.82;;;1.95;;
34926;SDS011;21132;48.308;14.274;2022-08-04T02:03:31;3.53;;;1.92;;
34926;SDS011;21132;48.308;14.274;2022-08-04T02:06:02;7.22;;;1.92;;
34926;SDS011;21132;48.308;14.274;2022-08-04T02:08:50;5.20;;;2.10;;
34926;SDS011;21132;48.308;14.274;2022-08-04T02:11:39;6.25;;;2.38;;
34926;SDS011;21132;48.308;14.274;2022-08-04T02:17:10;3.85;;;2.75;;
34926;SDS011;21132;48.308;14.274;2022-08-04T02:22:17;2.58;;;1.83;;
34926;SDS011;21132;48.308;14.274;2022-08-04T02:24:48;3.70;;;2.30;;
34926;SDS011;21132;48.308;14.274;2022-08-04T02:27:21;3.28;;;2.10;;
34926;SDS011;21132;48.308;14.274;2022-08-04T02:29:55;2.60;;;2.40;;
34926;SDS011;21132;48.308;14.274;2022-08-04T02:32:31;4.55;;;2.67;;
34926;SDS011;21132;48.308;14.274;2022-08-04T02:35:07;2.28;;;2.00;;
34926;SDS011;21132;48.308;14.274;2022-08-04T02:37:38;3.20;;;2.10;;
34926;SDS011;21132;48.308;14.274;2022-08-04T02:40:15;3.45;;;2.20;;
34926;SDS011;21132;48.308;14.274;2022-08-04T02:42:44;2.60;;;1.90;;
34926;SDS011;21132;48.308;14.274;2022-08-04T02:45:10;3.25;;;2.35;;
34926;SDS011;21132;48.308;14.274;2022-08-04T02:47:36;2.67;;;2.08;;
34926;SDS011;21132;48.308;14.274;2022-08-04T02:50:04;2.28;;;2.08;;
34926;SDS011;21132;48.308;14.274;2022-08-04T02:52:32;6.43;;;2.50;;
34926;SDS011;21132;48.308;14.274;2022-08-04T02:54:59;2.42;;;2.00;;
34926;SDS011;21132;48.308;14.274;2022-08-04T02:57:28;3.45;;;2.30;;
34926;SDS011;21132;48.308;14.274;2022-08-04T03:00:06;2.10;;;1.90;;
34926;SDS011;21132;48.308;14.274;2022-08-04T03:05:20;2.90;;;2.58;;
34926;SDS011;21132;48.308;14.274;2022-08-04T03:07:57;3.65;;;2.10;;
34926;SDS011;21132;48.308;14.274;2022-08-04T03:16:02;5.28;;;2.20;;
34926;SDS011;21132;48.308;14.274;2022-08-04T03:29:48;3.92;;;2.50;;
34926;SDS011;21132;48.308;14.274;2022-08-04T03:35:02;2.00;;;1.80;;
34926;SDS011;21132;48.308;14.274;2022-08-04T03:54:28;2.63;;;2.33;;
34926;SDS011;21132;48.308;14.274;2022-08-04T04:02:54;4.00;;;2.10;;
34926;SDS011;21132;48.308;14.274;2022-08-04T04:25:34;4.53;;;2.42;;
34926;SDS011;21132;48.308;14.274;2022-08-04T04:33:51;3.85;;;2.42;;
34926;SDS011;21132;48.308;14.274;2022-08-04T04:37:00;5.40;;;2.58;;
34926;SDS011;21132;48.308;14.274;2022-08-04T04:39:42;6.32;;;2.58;;
34926;SDS011;21132;48.308;14.274;2022-08-04T04:45:38;6.07;;;2.67;;
34926;SDS011;21132;48.308;14.274;2022-08-04T04:51:12;8.30;;;3.00;;
34926;SDS011;21132;48.308;14.274;2022-08-04T04:53:54;5.80;;;2.50;;
34926;SDS011;21132;48.308;14.274;2022-08-04T04:56:39;7.47;;;2.50;;
34926;SDS011;21132;48.308;14.274;2022-08-04T04:59:10;2.50;;;2.20;;
34926;SDS011;21132;48.308;14.274;2022-08-04T05:07:36;3.90;;;2.55;;
34926;SDS011;21132;48.308;14.274;2022-08-04T05:12:52;2.13;;;1.92;;
34926;SDS011;21132;48.308;14.274;2022-08-04T05:15:42;2.90;;;2.30;;
34926;SDS011;21132;48.308;14.274;2022-08-04T05:18:13;3.30;;;2.42;;
34926;SDS011;21132;48.308;14.274;2022-08-04T05:20:47;8.77;;;2.08;;
34926;SDS011;21132;48.308;14.274;2022-08-04T05:23:24;2.45;;;2.25;;
34926;SDS011;21132;48.308;14.274;2022-08-04T05:25:58;5.50;;;2.28;;
34926;SDS011;21132;48.308;14.274;2022-08-04T05:31:11;6.85;;;2.53;;
34926;SDS011;21132;48.308;14.274;2022-08-04T05:36:23;4.20;;;2.60;;
34926;SDS011;21132;48.308;14.274;2022-08-04T05:39:00;2.97;;;2.30;;
34926;SDS011;21132;48.308;14.274;2022-08-04T05:41:27;2.85;;;2.55;;
34926;SDS011;21132;48.308;14.274;2022-08-04T05:43:54;2.60;;;2.28;;
34926;SDS011;21132;48.308;14.274;2022-08-04T05:46:21;3.17;;;2.40;;
34926;SDS011;21132;48.308;14.274;2022-08-04T05:48:49;3.53;;;2.72;;
34926;SDS011;21132;48.308;14.274;2022-08-04T05:51:16;2.58;;;2.20;;
34926;SDS011;21132;48.308;14.274;2022-08-04T05:53:42;3.95;;;2.38;;
34926;SDS011;21132;48.308;14.274;2022-08-04T05:56:11;3.28;;;2.60;;
34926;SDS011;21132;48.308;14.274;2022-08-04T05:58:39;3.92;;;2.33;;
34926;SDS011;21132;48.308;14.274;2022-08-04T06:01:07;2.83;;;2.50;;
34926;SDS011;21132;48.308;14.274;2022-08-04T06:03:35;3.70;;;2.80;;
34926;SDS011;21132;48.308;14.274;2022-08-04T06:06:03;3.75;;;2.42;;
34926;SDS011;21132;48.308;14.274;2022-08-04T06:08:30;3.85;;;2.47;;
34926;SDS011;21132;48.308;14.274;2022-08-04T06:10:58;4.32;;;2.33;;
34926;SDS011;21132;48.308;14.274;2022-08-04T06:13:28;8.23;;;2.67;;
34926;SDS011;21132;48.308;14.274;2022-08-04T06:15:57;6.57;;;3.03;;
34926;SDS011;21132;48.308;14.274;2022-08-04T06:18:26;6.75;;;2.70;;
34926;SDS011;21132;48.308;14.274;2022-08-04T06:20:54;5.03;;;2.40;;
34926;SDS011;21132;48.308;14.274;2022-08-04T06:23:24;3.72;;;2.47;;
34926;SDS011;21132;48.308;14.274;2022-08-04T06:25:54;4.85;;;2.40;;
34926;SDS011;21132;48.308;14.274;2022-08-04T06:28:23;5.00;;;2.80;;
34926;SDS011;21132;48.308;14.274;2022-08-04T06:30:52;3.88;;;2.53;;
34926;SDS011;21132;48.308;14.274;2022-08-04T06:33:19;5.13;;;3.05;;
34926;SDS011;21132;48.308;14.274;2022-08-04T06:35:57;7.65;;;3.55;;
34926;SDS011;21132;48.308;14.274;2022-08-04T06:38:26;7.35;;;3.58;;
34926;SDS011;21132;48.308;14.274;2022-08-04T06:40:53;6.47;;;4.00;;
34926;SDS011;21132;48.308;14.274;2022-08-04T06:43:24;5.53;;;3.35;;
34926;SDS011;21132;48.308;14.274;2022-08-04T06:45:52;5.90;;;3.45;;
34926;SDS011;21132;48.308;14.274;2022-08-04T06:48:20;8.30;;;4.22;;
34926;SDS011;21132;48.308;14.274;2022-08-04T06:50:48;16.20;;;3.72;;
34926;SDS011;21132;48.308;14.274;2022-08-04T06:53:15;10.25;;;4.00;;
34926;SDS011;21132;48.308;14.274;2022-08-04T06:55:42;6.45;;;3.45;;
34926;SDS011;21132;48.308;14.274;2022-08-04T06:58:09;6.75;;;4.00;;
34926;SDS011;21132;48.308;14.274;2022-08-04T07:00:37;13.55;;;5.72;;
34926;SDS011;21132;48.308;14.274;2022-08-04T07:03:04;11.00;;;5.50;;
34926;SDS011;21132;48.308;14.274;2022-08-04T07:05:31;14.57;;;6.22;;
34926;SDS011;21132;48.308;14.274;2022-08-04T07:07:58;15.20;;;6.45;;
34926;SDS011;21132;48.308;14.274;2022-08-04T07:10:28;10.85;;;6.05;;
34926;SDS011;21132;48.308;14.274;2022-08-04T07:12:58;13.35;;;7.30;;
34926;SDS011;21132;48.308;14.274;2022-08-04T07:15:25;23.38;;;8.73;;
34926;SDS011;21132;48.308;14.274;2022-08-04T07:17:52;15.75;;;7.13;;
34926;SDS011;21132;48.308;14.274;2022-08-04T07:20:21;22.50;;;7.25;;
34926;SDS011;21132;48.308;14.274;2022-08-04T07:22:47;15.27;;;7.80;;
34926;SDS011;21132;48.308;14.274;2022-08-04T07:25:14;14.30;;;7.22;;
34926;SDS011;21132;48.308;14.274;2022-08-04T07:27:41;15.10;;;6.70;;
34926;SDS011;21132;48.308;14.274;2022-08-04T07:30:07;18.67;;;8.63;;
34926;SDS011;21132;48.308;14.274;2022-08-04T07:32:34;20.73;;;9.25;;
34926;SDS011;21132;48.308;14.274;2022-08-04T07:35:01;17.63;;;9.55;;
34926;SDS011;21132;48.308;14.274;2022-08-04T07:37:28;20.67;;;10.15;;
34926;SDS011;21132;48.308;14.274;2022-08-04T07:39:54;19.55;;;10.23;;
34926;SDS011;21132;48.308;14.274;2022-08-04T07:42:20;16.70;;;8.55;;
34926;SDS011;21132;48.308;14.274;2022-08-04T07:44:46;22.20;;;10.07;;
34926;SDS011;21132;48.308;14.274;2022-08-04T07:47:13;25.42;;;9.88;;
34926;SDS011;21132;48.308;14.274;2022-08-04T07:49:41;17.60;;;8.60;;
34926;SDS011;21132;48.308;14.274;2022-08-04T07:52:08;23.73;;;7.90;;
34926;SDS011;21132;48.308;14.274;2022-08-04T07:54:34;18.70;;;7.55;;
34926;SDS011;21132;48.308;14.274;2022-08-04T07:57:00;18.63;;;7.88;;
34926;SDS011;21132;48.308;14.274;2022-08-04T07:59:27;14.38;;;6.85;;
34926;SDS011;21132;48.308;14.274;2022-08-04T08:01:52;17.83;;;7.68;;
34926;SDS011;21132;48.308;14.274;2022-08-04T08:04:22;15.32;;;6.07;;
34926;SDS011;21132;48.308;14.274;2022-08-04T08:06:49;14.48;;;5.60;;
34926;SDS011;21132;48.308;14.274;2022-08-04T08:09:16;17.20;;;6.22;;
34926;SDS011;21132;48.308;14.274;2022-08-04T08:11:46;13.50;;;5.68;;
34926;SDS011;21132;48.308;14.274;2022-08-04T08:14:14;14.80;;;6.07;;
34926;SDS011;21132;48.308;14.274;2022-08-04T08:16:41;18.80;;;6.30;;
34926;SDS011;21132;48.308;14.274;2022-08-04T08:19:07;16.45;;;6.38;;
34926;SDS011;21132;48.308;14.274;2022-08-04T08:21:33;14.73;;;6.15;;
34926;SDS011;21132;48.308;14.274;2022-08-04T08:23:59;18.83;;;4.95;;
34926;SDS011;21132;48.308;14.274;2022-08-04T08:26:25;9.68;;;5.53;;
34926;SDS011;21132;48.308;14.274;2022-08-04T08:28:51;7.78;;;4.20;;
34926;SDS011;21132;48.308;14.274;2022-08-04T08:31:18;10.30;;;3.80;;
34926;SDS011;21132;48.308;14.274;2022-08-04T08:33:44;6.40;;;3.88;;
34926;SDS011;21132;48.308;14.274;2022-08-04T08:36:18;5.53;;;3.38;;
34926;SDS011;21132;48.308;14.274;2022-08-04T08:58:41;17.27;;;5.47;;
34926;SDS011;21132;48.308;14.274;2022-08-04T09:10:19;6.80;;;2.97;;
34926;SDS011;21132;48.308;14.274;2022-08-04T09:12:56;5.90;;;3.33;;
34926;SDS011;21132;48.308;14.274;2022-08-04T09:18:30;8.75;;;4.10;;
34926;SDS011;21132;48.308;14.274;2022-08-04T09:21:12;6.00;;;2.95;;
34926;SDS011;21132;48.308;14.274;2022-08-04T09:32:09;10.60;;;2.90;;
34926;SDS011;21132;48.308;14.274;2022-08-04T09:35:12;4.90;;;3.05;;
34926;SDS011;21132;48.308;14.274;2022-08-04T09:38:08;7.05;;;3.10;;
34926;SDS011;21132;48.308;14.274;2022-08-04T09:45:58;4.65;;;3.58;;
34926;SDS011;21132;48.308;14.274;2022-08-04T09:53:56;13.90;;;3.50;;
34926;SDS011;21132;48.308;14.274;2022-08-04T10:02:08;4.40;;;2.95;;
34926;SDS011;21132;48.308;14.274;2022-08-04T10:04:38;4.68;;;2.70;;
34926;SDS011;21132;48.308;14.274;2022-08-04T10:27:20;4.88;;;1.90;;
34926;SDS011;21132;48.308;14.274;2022-08-04T10:29:50;4.65;;;2.38;;
34926;SDS011;21132;48.308;14.274;2022-08-04T10:32:26;7.03;;;2.10;;
34926;SDS011;21132;48.308;14.274;2022-08-04T10:35:16;3.75;;;2.20;;
34926;SDS011;21132;48.308;14.274;2022-08-04T10:40:55;3.50;;;3.20;;
34926;SDS011;21132;48.308;14.274;2022-08-04T10:48:42;2.92;;;2.28;;
34926;SDS011;21132;48.308;14.274;2022-08-04T10:54:16;4.15;;;2.00;;
34926;SDS011;21132;48.308;14.274;2022-08-04T10:56:58;3.90;;;2.75;;
34926;SDS011;21132;48.308;14.274;2022-08-04T10:59:37;3.45;;;2.45;;
34926;SDS011;21132;48.308;14.274;2022-08-04T11:02:30;3.65;;;2.25;;
34926;SDS011;21132;48.308;14.274;2022-08-04T11:08:02;5.43;;;2.42;;
34926;SDS011;21132;48.308;14.274;2022-08-04T11:10:42;2.92;;;2.15;;
34926;SDS011;21132;48.308;14.274;2022-08-04T11:13:16;3.28;;;2.05;;
34926;SDS011;21132;48.308;14.274;2022-08-04T11:15:54;3.10;;;2.13;;
34926;SDS011;21132;48.308;14.274;2022-08-04T11:18:28;1.67;;;1.58;;
34926;SDS011;21132;48.308;14.274;2022-08-04T11:21:27;2.45;;;1.65;;
34926;SDS011;21132;48.308;14.274;2022-08-04T11:24:00;4.88;;;1.88;;
34926;SDS011;21132;48.308;14.274;2022-08-04T11:29:27;4.15;;;1.42;;
34926;SDS011;21132;48.308;14.274;2022-08-04T11:32:30;2.40;;;1.70;;
34926;SDS011;21132;48.308;14.274;2022-08-04T11:35:06;2.10;;;1.53;;
34926;SDS011;21132;48.308;14.274;2022-08-04T11:37:42;2.88;;;1.52;;
34926;SDS011;21132;48.308;14.274;2022-08-04T11:40:23;3.05;;;1.60;;
34926;SDS011;21132;48.308;14.274;2022-08-04T11:43:11;2.15;;;1.60;;
34926;SDS011;21132;48.308;14.274;2022-08-04T11:45:59;1.75;;;1.65;;
34926;SDS011;21132;48.308;14.274;2022-08-04T11:48:39;2.42;;;1.98;;
34926;SDS011;21132;48.308;14.274;2022-08-04T11:51:09;1.70;;;1.60;;
34926;SDS011;21132;48.308;14.274;2022-08-04T11:53:36;2.13;;;1.92;;
34926;SDS011;21132;48.308;14.274;2022-08-04T11:56:04;3.00;;;1.80;;
34926;SDS011;21132;48.308;14.274;2022-08-04T11:58:34;2.92;;;1.77;;
34926;SDS011;21132;48.308;14.274;2022-08-04T12:06:17;3.67;;;1.88;;
34926;SDS011;21132;48.308;14.274;2022-08-04T12:14:25;1.38;;;1.27;;
34926;SDS011;21132;48.308;14.274;2022-08-04T12:17:14;2.38;;;1.83;;
34926;SDS011;21132;48.308;14.274;2022-08-04T12:19:52;2.08;;;1.88;;
34926;SDS011;21132;48.308;14.274;2022-08-04T12:22:21;3.45;;;2.17;;
34926;SDS011;21132;48.308;14.274;2022-08-04T12:25:00;2.65;;;2.17;;
34926;SDS011;21132;48.308;14.274;2022-08-04T12:27:32;2.80;;;1.67;;
34926;SDS011;21132;48.308;14.274;2022-08-04T12:30:15;4.57;;;2.15;;
34926;SDS011;21132;48.308;14.274;2022-08-04T12:32:52;2.50;;;1.80;;
34926;SDS011;21132;48.308;14.274;2022-08-04T12:35:47;3.00;;;1.90;;
34926;SDS011;21132;48.308;14.274;2022-08-04T12:38:20;1.85;;;1.63;;
34926;SDS011;21132;48.308;14.274;2022-08-04T12:40:50;2.13;;;1.90;;
34926;SDS011;21132;48.308;14.274;2022-08-04T12:45:55;4.07;;;1.75;;
34926;SDS011;21132;48.308;14.274;2022-08-04T12:48:26;2.13;;;1.60;;
34926;SDS011;21132;48.308;14.274;2022-08-04T12:50:54;1.92;;;1.52;;
34926;SDS011;21132;48.308;14.274;2022-08-04T12:53:22;2.97;;;1.80;;
34926;SDS011;21132;48.308;14.274;2022-08-04T12:55:52;2.70;;;1.73;;
34926;SDS011;21132;48.308;14.274;2022-08-04T12:58:21;2.95;;;1.90;;
34926;SDS011;21132;48.308;14.274;2022-08-04T13:00:59;3.13;;;2.10;;
34926;SDS011;21132;48.308;14.274;2022-08-04T13:03:38;3.00;;;1.73;;
34926;SDS011;21132;48.308;14.274;2022-08-04T13:06:09;5.25;;;1.90;;
34926;SDS011;21132;48.308;14.274;2022-08-04T13:08:38;2.13;;;1.40;;
34926;SDS011;21132;48.308;14.274;2022-08-04T13:11:06;3.38;;;2.08;;
34926;SDS011;21132;48.308;14.274;2022-08-04T13:13:35;2.33;;;1.67;;
34926;SDS011;21132;48.308;14.274;2022-08-04T13:16:03;1.92;;;1.73;;
34926;SDS011;21132;48.308;14.274;2022-08-04T13:18:32;2.40;;;1.98;;
34926;SDS011;21132;48.308;14.274;2022-08-04T13:21:38;3.10;;;1.60;;
34926;SDS011;21132;48.308;14.274;2022-08-04T13:23:56;3.85;;;1.75;;
34926;SDS011;21132;48.308;14.274;2022-08-04T13:26:27;2.83;;;1.50;;
34926;SDS011;21132;48.308;14.274;2022-08-04T13:28:56;2.75;;;1.85;;
34926;SDS011;21132;48.308;14.274;2022-08-04T13:31:25;3.20;;;1.60;;
34926;SDS011;21132;48.308;14.274;2022-08-04T13:34:08;2.88;;;1.52;;
34926;SDS011;21132;48.308;14.274;2022-08-04T13:36:35;2.53;;;1.88;;
34926;SDS011;21132;48.308;14.274;2022-08-04T13:39:06;3.22;;;1.70;;
34926;SDS011;21132;48.308;14.274;2022-08-04T13:41:38;4.10;;;2.38;;
34926;SDS011;21132;48.308;14.274;2022-08-04T13:44:07;2.05;;;1.67;;
34926;SDS011;21132;48.308;14.274;2022-08-04T13:46:39;2.50;;;1.67;;
34926;SDS011;21132;48.308;14.274;2022-08-04T13:49:11;3.50;;;2.08;;
34926;SDS011;21132;48.308;14.274;2022-08-04T13:51:41;2.88;;;1.80;;
34926;SDS011;21132;48.308;14.274;2022-08-04T13:54:22;5.35;;;1.98;;
34926;SDS011;21132;48.308;14.274;2022-08-04T13:56:50;3.17;;;2.20;;
34926;SDS011;21132;48.308;14.274;2022-08-04T13:59:20;3.13;;;2.00;;
34926;SDS011;21132;48.308;14.274;2022-08-04T14:02:10;3.65;;;1.92;;
34926;SDS011;21132;48.308;14.274;2022-08-04T14:04:50;2.85;;;2.00;;
34926;SDS011;21132;48.308;14.274;2022-08-04T14:07:21;2.15;;;1.58;;
34926;SDS011;21132;48.308;14.274;2022-08-04T14:09:50;2.63;;;2.00;;
34926;SDS011;21132;48.308;14.274;2022-08-04T14:12:16;2.55;;;1.95;;
34926;SDS011;21132;48.308;14.274;2022-08-04T14:14:44;3.33;;;2.08;;
34926;SDS011;21132;48.308;14.274;2022-08-04T14:17:18;1.92;;;1.67;;
34926;SDS011;21132;48.308;14.274;2022-08-04T14:19:56;2.28;;;1.90;;
34926;SDS011;21132;48.308;14.274;2022-08-04T14:30:20;3.53;;;2.30;;
34926;SDS011;21132;48.308;14.274;2022-08-04T14:35:34;4.68;;;2.47;;
34926;SDS011;21132;48.308;14.274;2022-08-04T14:38:07;3.55;;;2.20;;
34926;SDS011;21132;48.308;14.274;2022-08-04T14:40:40;3.47;;;2.88;;
34926;SDS011;21132;48.308;14.274;2022-08-04T14:43:08;2.60;;;2.30;;
34926;SDS011;21132;48.308;14.274;2022-08-04T14:45:38;2.50;;;2.30;;
34926;SDS011;21132;48.308;14.274;2022-08-04T14:48:15;2.55;;;2.17;;
34926;SDS011;21132;48.308;14.274;2022-08-04T14:50:46;3.97;;;2.38;;
34926;SDS011;21132;48.308;14.274;2022-08-04T14:53:14;3.50;;;2.70;;
34926;SDS011;21132;48.308;14.274;2022-08-04T14:55:43;4.30;;;2.63;;
34926;SDS011;21132;48.308;14.274;2022-08-04T14:58:17;3.65;;;2.53;;
34926;SDS011;21132;48.308;14.274;2022-08-04T15:00:49;2.70;;;2.33;;
34926;SDS011;21132;48.308;14.274;2022-08-04T15:03:16;6.20;;;2.35;;
34926;SDS011;21132;48.308;14.274;2022-08-04T15:05:43;7.50;;;3.03;;
34926;SDS011;21132;48.308;14.274;2022-08-04T15:08:11;3.83;;;3.22;;
34926;SDS011;21132;48.308;14.274;2022-08-04T15:10:38;3.15;;;2.55;;
34926;SDS011;21132;48.308;14.274;2022-08-04T15:13:06;7.60;;;2.88;;
34926;SDS011;21132;48.308;14.274;2022-08-04T15:15:32;6.53;;;3.28;;
34926;SDS011;21132;48.308;14.274;2022-08-04T15:17:59;7.68;;;3.35;;
34926;SDS011;21132;48.308;14.274;2022-08-04T15:20:25;3.28;;;2.45;;
34926;SDS011;21132;48.308;14.274;2022-08-04T15:22:51;7.53;;;3.40;;
34926;SDS011;21132;48.308;14.274;2022-08-04T15:25:17;3.55;;;3.17;;
34926;SDS011;21132;48.308;14.274;2022-08-04T15:27:45;6.35;;;3.63;;
34926;SDS011;21132;48.308;14.274;2022-08-04T15:30:14;3.67;;;3.15;;
34926;SDS011;21132;48.308;14.274;2022-08-04T15:32:45;5.25;;;3.58;;
34926;SDS011;21132;48.308;14.274;2022-08-04T15:35:18;5.68;;;3.20;;
34926;SDS011;21132;48.308;14.274;2022-08-04T15:37:49;4.15;;;3.13;;
34926;SDS011;21132;48.308;14.274;2022-08-04T15:45:50;4.57;;;3.28;;
34926;SDS011;21132;48.308;14.274;2022-08-04T15:48:24;3.13;;;2.83;;
34926;SDS011;21132;48.308;14.274;2022-08-04T15:51:01;3.75;;;3.20;;
34926;SDS011;21132;48.308;14.274;2022-08-04T15:53:30;5.32;;;3.25;;
34926;SDS011;21132;48.308;14.274;2022-08-04T15:58:50;5.45;;;3.50;;
34926;SDS011;21132;48.308;14.274;2022-08-04T16:01:17;6.85;;;3.30;;
34926;SDS011;21132;48.308;14.274;2022-08-04T16:03:47;6.68;;;3.00;;
34926;SDS011;21132;48.308;14.274;2022-08-04T16:16:30;7.30;;;4.95;;
34926;SDS011;21132;48.308;14.274;2022-08-04T16:19:05;7.95;;;4.85;;
34926;SDS011;21132;48.308;14.274;2022-08-04T16:21:31;7.47;;;4.13;;
34926;SDS011;21132;48.308;14.274;2022-08-04T16:24:05;6.45;;;4.20;;
34926;SDS011;21132;48.308;14.274;2022-08-04T16:26:48;3.70;;;3.20;;
34926;SDS011;21132;48.308;14.274;2022-08-04T16:34:56;4.00;;;2.80;;
34926;SDS011;21132;48.308;14.274;2022-08-04T16:37:29;4.57;;;2.67;;
34926;SDS011;21132;48.308;14.274;2022-08-04T16:43:00;3.28;;;2.97;;
34926;SDS011;21132;48.308;14.274;2022-08-04T16:45:40;3.50;;;3.20;;
34926;SDS011;21132;48.308;14.274;2022-08-04T16:48:09;4.45;;;2.90;;
34926;SDS011;21132;48.308;14.274;2022-08-04T16:53:18;3.80;;;2.80;;
34926;SDS011;21132;48.308;14.274;2022-08-04T16:55:49;6.10;;;2.95;;
34926;SDS011;21132;48.308;14.274;2022-08-04T16:58:17;5.05;;;2.88;;
34926;SDS011;21132;48.308;14.274;2022-08-04T17:01:05;4.18;;;2.47;;
34926;SDS011;21132;48.308;14.274;2022-08-04T17:03:31;6.88;;;2.03;;
34926;SDS011;21132;48.308;14.274;2022-08-04T17:06:30;4.65;;;1.90;;
34926;SDS011;21132;48.308;14.274;2022-08-04T17:08:57;4.25;;;2.20;;
34926;SDS011;21132;48.308;14.274;2022-08-04T17:11:32;3.25;;;2.45;;
34926;SDS011;21132;48.308;14.274;2022-08-04T17:13:57;2.95;;;2.45;;
34926;SDS011;21132;48.308;14.274;2022-08-04T17:16:23;5.35;;;2.25;;
34926;SDS011;21132;48.308;14.274;2022-08-04T17:18:52;4.68;;;2.40;;
34926;SDS011;21132;48.308;14.274;2022-08-04T17:21:26;6.15;;;2.70;;
34926;SDS011;21132;48.308;14.274;2022-08-04T17:23:56;6.13;;;2.30;;
34926;SDS011;21132;48.308;14.274;2022-08-04T17:26:24;3.25;;;2.17;;
34926;SDS011;21132;48.308;14.274;2022-08-04T17:28:55;2.55;;;2.10;;
34926;SDS011;21132;48.308;14.274;2022-08-04T17:31:22;3.17;;;2.00;;
34926;SDS011;21132;48.308;14.274;2022-08-04T17:33:53;2.47;;;2.28;;
34926;SDS011;21132;48.308;14.274;2022-08-04T17:36:25;5.22;;;2.03;;
34926;SDS011;21132;48.308;14.274;2022-08-04T17:38:53;2.95;;;1.55;;
34926;SDS011;21132;48.308;14.274;2022-08-04T17:41:24;2.20;;;1.80;;
34926;SDS011;21132;48.308;14.274;2022-08-04T17:48:56;7.22;;;2.72;;
34926;SDS011;21132;48.308;14.274;2022-08-04T17:51:31;8.57;;;2.35;;
34926;SDS011;21132;48.308;14.274;2022-08-04T17:53:59;2.25;;;1.67;;
34926;SDS011;21132;48.308;14.274;2022-08-04T17:56:32;2.85;;;1.80;;
34926;SDS011;21132;48.308;14.274;2022-08-04T17:59:14;2.38;;;1.73;;
34926;SDS011;21132;48.308;14.274;2022-08-04T18:04:29;2.13;;;1.92;;
34926;SDS011;21132;48.308;14.274;2022-08-04T18:06:56;7.35;;;1.98;;
34926;SDS011;21132;48.308;14.274;2022-08-04T18:09:29;3.03;;;2.00;;
34926;SDS011;21132;48.308;14.274;2022-08-04T18:12:03;5.85;;;1.40;;
34926;SDS011;21132;48.308;14.274;2022-08-04T18:17:05;5.80;;;1.83;;
34926;SDS011;21132;48.308;14.274;2022-08-04T18:19:31;2.63;;;1.92;;
34926;SDS011;21132;48.308;14.274;2022-08-04T18:21:57;5.50;;;2.05;;
34926;SDS011;21132;48.308;14.274;2022-08-04T18:24:23;4.35;;;1.45;;
34926;SDS011;21132;48.308;14.274;2022-08-04T18:26:50;1.98;;;1.20;;
34926;SDS011;21132;48.308;14.274;2022-08-04T18:29:16;2.33;;;1.65;;
34926;SDS011;21132;48.308;14.274;2022-08-04T18:31:42;3.30;;;1.85;;
34926;SDS011;21132;48.308;14.274;2022-08-04T18:34:08;2.00;;;1.58;;
34926;SDS011;21132;48.308;14.274;2022-08-04T18:36:34;4.15;;;1.65;;
34926;SDS011;21132;48.308;14.274;2022-08-04T18:39:01;2.97;;;2.00;;
34926;SDS011;21132;48.308;14.274;2022-08-04T18:41:29;2.58;;;2.00;;
34926;SDS011;21132;48.308;14.274;2022-08-04T18:43:55;2.28;;;1.90;;
34926;SDS011;21132;48.308;14.274;2022-08-04T18:46:21;2.50;;;1.98;;
34926;SDS011;21132;48.308;14.274;2022-08-04T18:48:50;2.55;;;2.30;;
34926;SDS011;21132;48.308;14.274;2022-08-04T18:51:16;2.90;;;2.53;;
34926;SDS011;21132;48.308;14.274;2022-08-04T18:53:45;3.20;;;2.30;;
34926;SDS011;21132;48.308;14.274;2022-08-04T18:56:12;2.17;;;1.98;;
34926;SDS011;21132;48.308;14.274;2022-08-04T18:58:38;5.22;;;2.38;;
34926;SDS011;21132;48.308;14.274;2022-08-04T19:01:04;4.03;;;2.55;;
34926;SDS011;21132;48.308;14.274;2022-08-04T19:03:32;6.13;;;2.25;;
34926;SDS011;21132;48.308;14.274;2022-08-04T19:05:59;2.55;;;2.03;;
34926;SDS011;21132;48.308;14.274;2022-08-04T19:08:27;3.60;;;2.20;;
34926;SDS011;21132;48.308;14.274;2022-08-04T19:10:54;2.60;;;2.20;;
34926;SDS011;21132;48.308;14.274;2022-08-04T19:13:20;6.25;;;4.55;;
34926;SDS011;21132;48.308;14.274;2022-08-04T19:15:46;3.58;;;3.15;;
34926;SDS011;21132;48.308;14.274;2022-08-04T19:18:12;7.30;;;5.55;;
34926;SDS011;21132;48.308;14.274;2022-08-04T19:20:37;8.70;;;5.88;;
34926;SDS011;21132;48.308;14.274;2022-08-04T19:23:03;4.20;;;3.28;;
34926;SDS011;21132;48.308;14.274;2022-08-04T19:25:29;6.20;;;2.50;;
34926;SDS011;21132;48.308;14.274;2022-08-04T19:27:55;3.78;;;2.45;;
34926;SDS011;21132;48.308;14.274;2022-08-04T19:30:21;4.35;;;2.35;;
34926;SDS011;21132;48.308;14.274;2022-08-04T19:32:47;3.63;;;2.30;;
34926;SDS011;21132;48.308;14.274;2022-08-04T19:35:13;3.38;;;2.00;;
34926;SDS011;21132;48.308;14.274;2022-08-04T19:37:38;4.03;;;2.25;;
34926;SDS011;21132;48.308;14.274;2022-08-04T19:40:06;4.55;;;2.70;;
34926;SDS011;21132;48.308;14.274;2022-08-04T19:42:33;3.53;;;2.70;;
34926;SDS011;21132;48.308;14.274;2022-08-04T19:44:59;5.93;;;2.70;;
34926;SDS011;21132;48.308;14.274;2022-08-04T19:47:27;3.40;;;2.40;;